Time,TemperatureF,DewpointF,PressureIn,WindDirection,WindDirectionDegrees,WindSpeedMPH,WindSpeedGustMPH,Humidity,HourlyPrecipIn,Conditions,Clouds,dailyrainin,SoftwareType,DateUTC
2013-01-16 00:00:00,54.9,54.6,29.79,SE,128,20.0,24.0,99,0.00,,,0.00,Wunderground v.1.15,2013-01-16 05:00:00,
2013-01-16 00:01:00,54.9,54.6,29.79,SE,137,21.0,24.0,99,0.00,,,0.00,Wunderground v.1.15,2013-01-16 05:01:00,
2013-01-16 00:02:00,54.9,54.6,29.79,SE,146,21.0,24.0,99,0.00,,,0.00,Wunderground v.1.15,2013-01-16 05:02:00,
2013-01-16 00:05:00,54.9,54.6,29.79,ESE,111,21.0,24.0,99,0.04,,,0.01,Wunderground v.1.15,2013-01-16 05:05:00,
2013-01-16 00:10:00,55.0,54.7,29.79,SE,136,22.0,26.0,99,0.04,,,0.01,Wunderground v.1.15,2013-01-16 05:10:00,
2013-01-16 00:16:00,55.0,54.7,29.79,ESE,119,21.0,26.0,99,0.04,,,0.01,Wunderground v.1.15,2013-01-16 05:16:00,
2013-01-16 00:21:00,55.0,54.7,29.79,SE,135,21.0,21.0,99,0.00,,,0.01,Wunderground v.1.15,2013-01-16 05:21:00,
2013-01-16 00:26:00,54.9,54.6,29.79,SSE,148,20.0,23.0,99,0.00,,,0.01,Wunderground v.1.15,2013-01-16 05:26:00,
2013-01-16 00:32:00,54.9,54.6,29.79,SE,145,20.0,20.0,99,0.00,,,0.01,Wunderground v.1.15,2013-01-16 05:32:00,
2013-01-16 00:37:00,54.8,54.5,29.79,ESE,110,21.0,22.0,99,0.00,,,0.01,Wunderground v.1.15,2013-01-16 05:37:00,
2013-01-16 00:42:00,54.9,54.6,29.78,SE,133,22.0,28.0,99,0.00,,,0.01,Wunderground v.1.15,2013-01-16 05:42:00,
2013-01-16 00:47:00,54.8,54.5,29.78,SE,143,20.0,28.0,99,0.00,,,0.01,Wunderground v.1.15,2013-01-16 05:47:00,
2013-01-16 00:52:00,54.5,54.2,29.78,ESE,123,17.0,18.0,99,0.00,,,0.01,Wunderground v.1.15,2013-01-16 05:52:00,
2013-01-16 00:57:00,54.4,54.1,29.77,SE,146,17.0,19.0,99,0.00,,,0.01,Wunderground v.1.15,2013-01-16 05:57:00,
2013-01-16 01:02:00,54.4,54.1,29.77,SE,130,19.0,26.0,99,0.00,,,0.01,Wunderground v.1.15,2013-01-16 06:02:00,
2013-01-16 01:07:00,54.3,54.0,29.77,East,98,21.0,27.0,99,0.00,,,0.01,Wunderground v.1.15,2013-01-16 06:07:00,
2013-01-16 01:12:00,54.3,54.0,29.77,SE,137,22.0,24.0,99,0.00,,,0.02,Wunderground v.1.15,2013-01-16 06:12:00,
2013-01-16 01:17:00,54.2,53.9,29.77,SE,129,21.0,24.0,99,0.00,,,0.02,Wunderground v.1.15,2013-01-16 06:17:00,
2013-01-16 01:23:00,54.2,53.9,29.77,SE,146,20.0,26.0,99,0.00,,,0.02,Wunderground v.1.15,2013-01-16 06:23:00,
2013-01-16 01:28:00,54.1,53.8,29.77,ESE,119,20.0,35.0,99,0.04,,,0.03,Wunderground v.1.15,2013-01-16 06:28:00,
2013-01-16 01:33:00,54.1,53.8,29.77,SE,140,21.0,21.0,99,0.04,,,0.03,Wunderground v.1.15,2013-01-16 06:33:00,
2013-01-16 01:38:00,54.1,53.8,29.77,SE,130,22.0,25.0,99,0.29,,,0.05,Wunderground v.1.15,2013-01-16 06:38:00,
2013-01-16 01:43:00,54.0,53.7,29.77,SSE,150,20.0,21.0,99,0.14,,,0.07,Wunderground v.1.15,2013-01-16 06:43:00,
2013-01-16 01:48:00,54.0,53.7,29.77,ESE,123,22.0,35.0,99,0.24,,,0.09,Wunderground v.1.15,2013-01-16 06:48:00,
2013-01-16 01:53:00,54.0,53.7,29.77,East,101,23.0,31.0,99,0.14,,,0.10,Wunderground v.1.15,2013-01-16 06:53:00,
2013-01-16 01:58:00,53.9,53.6,29.77,SSE,148,22.0,32.0,99,0.07,,,0.10,Wunderground v.1.15,2013-01-16 06:58:00,
2013-01-16 02:04:00,53.9,53.6,29.77,SE,135,21.0,26.0,99,0.07,,,0.11,Wunderground v.1.15,2013-01-16 07:04:00,
2013-01-16 02:10:00,53.7,53.4,29.77,SE,138,21.0,21.0,99,0.05,,,0.11,Wunderground v.1.15,2013-01-16 07:10:00,
2013-01-16 02:15:00,53.7,53.4,29.78,SE,140,22.0,29.0,99,0.21,,,0.13,Wunderground v.1.15,2013-01-16 07:15:00,
2013-01-16 02:20:00,53.7,53.4,29.78,SE,143,23.0,30.0,99,0.10,,,0.13,Wunderground v.1.15,2013-01-16 07:20:00,
2013-01-16 02:25:00,53.7,53.4,29.78,SE,131,23.0,30.0,99,0.21,,,0.15,Wunderground v.1.15,2013-01-16 07:25:00,
2013-01-16 02:30:00,53.8,53.5,29.79,SE,132,23.0,23.0,99,0.09,,,0.15,Wunderground v.1.15,2013-01-16 07:30:00,
2013-01-16 02:35:00,53.8,53.5,29.79,ESE,122,20.0,23.0,99,0.05,,,0.15,Wunderground v.1.15,2013-01-16 07:35:00,
2013-01-16 02:40:00,53.6,53.3,29.79,SE,125,18.0,18.0,99,0.04,,,0.15,Wunderground v.1.15,2013-01-16 07:40:00,
2013-01-16 02:45:00,53.3,53.0,29.77,ESE,122,20.0,21.0,99,0.00,,,0.15,Wunderground v.1.15,2013-01-16 07:45:00,
2013-01-16 02:50:00,53.2,52.9,29.77,ESE,114,20.0,20.0,99,0.00,,,0.15,Wunderground v.1.15,2013-01-16 07:50:00,
2013-01-16 02:55:00,53.2,52.9,29.77,SE,128,21.0,26.0,99,0.00,,,0.15,Wunderground v.1.15,2013-01-16 07:55:00,
2013-01-16 03:00:00,53.1,52.8,29.77,SE,133,21.0,33.0,99,0.00,,,0.15,Wunderground v.1.15,2013-01-16 08:00:00,
2013-01-16 03:06:00,53.0,52.7,29.77,ESE,113,21.0,33.0,99,0.00,,,0.15,Wunderground v.1.15,2013-01-16 08:06:00,
2013-01-16 03:11:00,53.0,52.7,29.77,SE,145,21.0,28.0,99,0.00,,,0.15,Wunderground v.1.15,2013-01-16 08:11:00,
2013-01-16 03:16:00,53.1,52.8,29.77,SE,126,20.0,28.0,99,0.00,,,0.15,Wunderground v.1.15,2013-01-16 08:16:00,
2013-01-16 03:21:00,53.2,52.9,29.77,SE,136,20.0,25.0,99,0.00,,,0.15,Wunderground v.1.15,2013-01-16 08:21:00,
2013-01-16 03:26:00,53.2,52.9,29.77,SE,131,21.0,30.0,99,0.00,,,0.15,Wunderground v.1.15,2013-01-16 08:26:00,
2013-01-16 03:31:00,53.4,53.1,29.77,SE,128,22.0,23.0,99,0.00,,,0.15,Wunderground v.1.15,2013-01-16 08:31:00,
2013-01-16 03:36:00,53.4,53.1,29.77,ESE,123,22.0,38.0,99,0.00,,,0.15,Wunderground v.1.15,2013-01-16 08:36:00,
2013-01-16 03:41:00,53.3,53.0,29.77,ESE,113,21.0,21.0,99,0.00,,,0.15,Wunderground v.1.15,2013-01-16 08:41:00,
2013-01-16 03:46:00,53.2,52.9,29.77,ESE,105,18.0,26.0,99,0.00,,,0.15,Wunderground v.1.15,2013-01-16 08:46:00,
2013-01-16 03:51:00,53.2,52.9,29.77,SE,142,18.0,18.0,99,0.00,,,0.15,Wunderground v.1.15,2013-01-16 08:51:00,
2013-01-16 03:56:00,53.2,52.9,29.77,SE,129,22.0,27.0,99,0.00,,,0.15,Wunderground v.1.15,2013-01-16 08:56:00,
2013-01-16 04:02:00,53.5,53.2,29.77,SE,137,24.0,24.0,99,0.00,,,0.15,Wunderground v.1.15,2013-01-16 09:02:00,
2013-01-16 04:07:00,53.7,53.4,29.77,ESE,123,24.0,26.0,99,0.00,,,0.15,Wunderground v.1.15,2013-01-16 09:07:00,
2013-01-16 04:12:00,53.6,53.3,29.75,SE,128,23.0,26.0,99,0.00,,,0.15,Wunderground v.1.15,2013-01-16 09:12:00,
2013-01-16 04:17:00,53.7,53.4,29.75,ESE,119,23.0,26.0,99,0.00,,,0.16,Wunderground v.1.15,2013-01-16 09:17:00,
2013-01-16 04:23:00,53.6,53.3,29.75,SE,131,23.0,29.0,99,0.00,,,0.16,Wunderground v.1.15,2013-01-16 09:23:00,
2013-01-16 04:28:00,53.6,53.3,29.74,SE,137,22.0,35.0,99,0.00,,,0.16,Wunderground v.1.15,2013-01-16 09:28:00,
2013-01-16 04:33:00,53.7,53.4,29.74,SE,133,22.0,24.0,99,0.00,,,0.16,Wunderground v.1.15,2013-01-16 09:33:00,
2013-01-16 04:38:00,53.9,53.6,29.74,South,170,22.0,26.0,99,0.00,,,0.17,Wunderground v.1.15,2013-01-16 09:38:00,
2013-01-16 04:44:00,54.7,54.4,29.74,SE,138,23.0,31.0,99,0.00,,,0.17,Wunderground v.1.15,2013-01-16 09:44:00,
2013-01-16 04:49:00,54.4,54.1,29.74,SE,136,24.0,31.0,99,0.00,,,0.17,Wunderground v.1.15,2013-01-16 09:49:00,
2013-01-16 04:54:00,54.9,54.6,29.74,SSE,149,25.0,33.0,99,0.00,,,0.18,Wunderground v.1.15,2013-01-16 09:54:00,
2013-01-16 04:59:00,55.0,54.7,29.74,ESE,120,25.0,33.0,99,0.00,,,0.18,Wunderground v.1.15,2013-01-16 09:59:00,
2013-01-16 05:04:00,54.9,54.6,29.74,SE,142,23.0,30.0,99,0.07,,,0.19,Wunderground v.1.15,2013-01-16 10:04:00,
2013-01-16 05:09:00,55.1,54.8,29.74,SE,138,23.0,30.0,99,0.15,,,0.20,Wunderground v.1.15,2013-01-16 10:09:00,
2013-01-16 05:15:00,55.3,55.0,29.74,SE,140,23.0,27.0,99,0.43,,,0.23,Wunderground v.1.15,2013-01-16 10:15:00,
2013-01-16 05:20:00,55.4,55.1,29.74,SE,134,24.0,24.0,99,0.38,,,0.25,Wunderground v.1.15,2013-01-16 10:20:00,
2013-01-16 05:26:00,55.2,54.9,29.74,ESE,117,22.0,30.0,99,0.19,,,0.27,Wunderground v.1.15,2013-01-16 10:26:00,
2013-01-16 05:31:00,55.1,54.8,29.73,SE,138,23.0,26.0,99,0.07,,,0.27,Wunderground v.1.15,2013-01-16 10:31:00,
2013-01-16 05:36:00,55.1,54.8,29.73,SE,128,25.0,26.0,99,0.05,,,0.27,Wunderground v.1.15,2013-01-16 10:36:00,
2013-01-16 05:41:00,55.2,54.9,29.73,SE,135,22.0,23.0,99,0.22,,,0.29,Wunderground v.1.15,2013-01-16 10:41:00,
2013-01-16 05:46:00,55.3,54.7,29.74,ESE,116,20.0,26.0,98,0.36,,,0.31,Wunderground v.1.15,2013-01-16 10:46:00,
2013-01-16 05:52:00,55.0,54.7,29.74,SE,140,20.0,20.0,99,0.29,,,0.33,Wunderground v.1.15,2013-01-16 10:52:00,
2013-01-16 05:57:00,54.6,54.3,29.74,SE,128,17.0,21.0,99,0.10,,,0.33,Wunderground v.1.15,2013-01-16 10:57:00,
2013-01-16 06:02:00,54.4,54.1,29.74,East,97,17.0,20.0,99,0.25,,,0.35,Wunderground v.1.15,2013-01-16 11:02:00,
2013-01-16 06:07:00,54.2,53.9,29.74,SE,130,17.0,20.0,99,0.35,,,0.37,Wunderground v.1.15,2013-01-16 11:07:00,
2013-01-16 06:13:00,54.0,53.7,29.75,SE,134,15.0,17.0,99,0.37,,,0.39,Wunderground v.1.15,2013-01-16 11:13:00,
2013-01-16 06:19:00,53.9,53.6,29.75,ESE,123,16.0,28.0,99,0.27,,,0.41,Wunderground v.1.15,2013-01-16 11:19:00,
2013-01-16 06:24:00,54.1,53.8,29.75,SE,138,18.0,26.0,99,0.13,,,0.42,Wunderground v.1.15,2013-01-16 11:24:00,
2013-01-16 06:29:00,54.1,53.8,29.75,SE,124,19.0,29.0,99,0.08,,,0.42,Wunderground v.1.15,2013-01-16 11:29:00,
2013-01-16 06:34:00,54.2,53.9,29.75,ESE,115,20.0,31.0,99,0.07,,,0.43,Wunderground v.1.15,2013-01-16 11:34:00,
2013-01-16 06:39:00,53.8,53.5,29.75,ESE,115,19.0,37.0,99,0.07,,,0.43,Wunderground v.1.15,2013-01-16 11:39:00,
2013-01-16 06:44:00,53.6,53.3,29.75,ENE,75,16.0,25.0,99,0.04,,,0.43,Wunderground v.1.15,2013-01-16 11:44:00,
2013-01-16 06:50:00,53.5,53.2,29.75,ESE,122,12.0,12.0,99,0.00,,,0.43,Wunderground v.1.15,2013-01-16 11:50:00,
2013-01-16 06:55:00,53.6,53.3,29.75,SE,142,8.0,12.0,99,0.00,,,0.43,Wunderground v.1.15,2013-01-16 11:55:00,
2013-01-16 07:00:00,53.7,53.4,29.76,SSE,153,7.0,7.0,99,0.00,,,0.43,Wunderground v.1.15,2013-01-16 12:00:00,
2013-01-16 07:05:00,53.6,53.3,29.76,ESE,115,4.0,8.0,99,0.00,,,0.43,Wunderground v.1.15,2013-01-16 12:05:00,
2013-01-16 07:10:00,53.6,53.3,29.76,East,82,3.0,11.0,99,0.00,,,0.43,Wunderground v.1.15,2013-01-16 12:10:00,
2013-01-16 07:16:00,53.5,53.2,29.77,ESE,115,4.0,19.0,99,0.00,,,0.43,Wunderground v.1.15,2013-01-16 12:16:00,
2013-01-16 07:21:00,53.5,53.2,29.77,ESE,119,4.0,11.0,99,0.00,,,0.44,Wunderground v.1.15,2013-01-16 12:21:00,
2013-01-16 07:26:00,53.5,53.2,29.77,ESE,123,3.0,11.0,99,0.00,,,0.44,Wunderground v.1.15,2013-01-16 12:26:00,
2013-01-16 07:31:00,53.6,53.3,29.77,East,96,2.0,5.0,99,0.00,,,0.44,Wunderground v.1.15,2013-01-16 12:31:00,
2013-01-16 07:36:00,53.6,53.3,29.77,East,96,1.0,5.0,99,0.00,,,0.44,Wunderground v.1.15,2013-01-16 12:36:00,
2013-01-16 07:42:00,53.7,53.4,29.77,East,90,3.0,17.0,99,0.00,,,0.44,Wunderground v.1.15,2013-01-16 12:42:00,
2013-01-16 07:48:00,53.8,53.5,29.77,SSE,148,7.0,17.0,99,0.00,,,0.44,Wunderground v.1.15,2013-01-16 12:48:00,
2013-01-16 07:53:00,53.9,53.6,29.77,SE,141,7.0,8.0,99,0.00,,,0.44,Wunderground v.1.15,2013-01-16 12:53:00,
2013-01-16 07:58:00,53.9,53.6,29.77,SE,130,7.0,12.0,99,0.00,,,0.44,Wunderground v.1.15,2013-01-16 12:58:00,
2013-01-16 08:03:00,54.0,53.7,29.77,ESE,107,8.0,9.0,99,0.00,,,0.44,Wunderground v.1.15,2013-01-16 13:03:00,
2013-01-16 08:08:00,54.1,53.8,29.77,ESE,119,8.0,15.0,99,0.00,,,0.44,Wunderground v.1.15,2013-01-16 13:08:00,
2013-01-16 08:13:00,54.2,53.9,29.78,SE,142,10.0,17.0,99,0.00,,,0.44,Wunderground v.1.15,2013-01-16 13:13:00,
2013-01-16 08:18:00,54.4,54.1,29.78,SE,129,10.0,17.0,99,0.00,,,0.44,Wunderground v.1.15,2013-01-16 13:18:00,
2013-01-16 08:24:00,54.4,54.1,29.78,SSE,165,6.0,8.0,99,0.00,,,0.44,Wunderground v.1.15,2013-01-16 13:24:00,
2013-01-16 08:29:00,54.4,54.1,29.78,SSE,161,4.0,8.0,99,0.00,,,0.45,Wunderground v.1.15,2013-01-16 13:29:00,
2013-01-16 08:34:00,54.4,54.1,29.78,SSE,155,1.0,8.0,99,0.00,,,0.45,Wunderground v.1.15,2013-01-16 13:34:00,
2013-01-16 08:39:00,54.5,54.2,29.78,SSE,150,2.0,8.0,99,0.00,,,0.45,Wunderground v.1.15,2013-01-16 13:39:00,
2013-01-16 08:44:00,54.6,54.3,29.80,SSE,162,4.0,10.0,99,0.00,,,0.45,Wunderground v.1.15,2013-01-16 13:44:00,
2013-01-16 08:49:00,54.7,54.4,29.80,SSE,157,5.0,10.0,99,0.00,,,0.45,Wunderground v.1.15,2013-01-16 13:49:00,
2013-01-16 08:54:00,54.8,54.5,29.80,SE,135,6.0,9.0,99,0.00,,,0.45,Wunderground v.1.15,2013-01-16 13:54:00,
2013-01-16 08:59:00,54.8,54.5,29.81,SE,129,7.0,9.0,99,0.00,,,0.46,Wunderground v.1.15,2013-01-16 13:59:00,
2013-01-16 09:04:00,54.8,54.5,29.81,SE,135,8.0,12.0,99,0.00,,,0.46,Wunderground v.1.15,2013-01-16 14:04:00,
2013-01-16 09:09:00,54.8,54.5,29.81,SE,135,5.0,12.0,99,0.00,,,0.46,Wunderground v.1.15,2013-01-16 14:09:00,
2013-01-16 09:15:00,54.8,54.5,29.81,SE,134,3.0,8.0,99,0.00,,,0.46,Wunderground v.1.15,2013-01-16 14:15:00,
2013-01-16 09:20:00,54.8,54.5,29.81,ESE,106,3.0,7.0,99,0.00,,,0.46,Wunderground v.1.15,2013-01-16 14:20:00,
2013-01-16 09:25:00,54.8,54.5,29.81,SE,128,4.0,12.0,99,0.00,,,0.46,Wunderground v.1.15,2013-01-16 14:25:00,
2013-01-16 09:30:00,54.8,54.5,29.82,SSE,163,4.0,4.0,99,0.00,,,0.46,Wunderground v.1.15,2013-01-16 14:30:00,
2013-01-16 09:36:00,54.9,54.6,29.82,SE,146,2.0,6.0,99,0.00,,,0.46,Wunderground v.1.15,2013-01-16 14:36:00,
2013-01-16 09:41:00,54.9,54.6,29.82,ESE,123,3.0,4.0,99,0.00,,,0.46,Wunderground v.1.15,2013-01-16 14:41:00,
2013-01-16 09:46:00,54.9,54.6,29.83,ESE,123,4.0,5.0,99,0.00,,,0.46,Wunderground v.1.15,2013-01-16 14:46:00,
2013-01-16 09:51:00,55.0,54.7,29.83,ESE,121,2.0,5.0,99,0.00,,,0.46,Wunderground v.1.15,2013-01-16 14:51:00,
2013-01-16 09:57:00,55.0,54.7,29.83,ESE,121,2.0,5.0,99,0.00,,,0.46,Wunderground v.1.15,2013-01-16 14:57:00,
2013-01-16 10:02:00,55.2,54.9,29.83,ESE,121,1.0,2.0,99,0.00,,,0.46,Wunderground v.1.15,2013-01-16 15:02:00,
2013-01-16 10:07:00,55.4,55.1,29.83,ESE,121,0.0,2.0,99,0.00,,,0.46,Wunderground v.1.15,2013-01-16 15:07:00,
2013-01-16 10:12:00,55.5,55.2,29.83,ESE,121,0.0,1.0,99,0.00,,,0.46,Wunderground v.1.15,2013-01-16 15:12:00,
2013-01-16 10:17:00,55.5,55.2,29.83,ESE,121,1.0,7.0,99,0.00,,,0.46,Wunderground v.1.15,2013-01-16 15:17:00,
2013-01-16 10:22:00,55.7,55.4,29.83,ESE,121,1.0,4.0,99,0.00,,,0.46,Wunderground v.1.15,2013-01-16 15:22:00,
2013-01-16 10:27:00,55.9,55.6,29.83,ESE,121,1.0,7.0,99,0.00,,,0.46,Wunderground v.1.15,2013-01-16 15:27:00,
2013-01-16 10:32:00,56.2,55.9,29.83,NW,316,4.0,9.0,99,0.00,,,0.46,Wunderground v.1.15,2013-01-16 15:32:00,
2013-01-16 10:37:00,56.3,56.0,29.83,WNW,302,8.0,11.0,99,0.00,,,0.46,Wunderground v.1.15,2013-01-16 15:37:00,
2013-01-16 10:42:00,56.4,56.1,29.82,NW,320,9.0,10.0,99,0.00,,,0.46,Wunderground v.1.15,2013-01-16 15:42:00,
2013-01-16 10:48:00,56.4,56.1,29.82,NW,304,9.0,14.0,99,0.00,,,0.46,Wunderground v.1.15,2013-01-16 15:48:00,
2013-01-16 10:53:00,56.5,56.2,29.82,WNW,302,11.0,13.0,99,0.00,,,0.46,Wunderground v.1.15,2013-01-16 15:53:00,
2013-01-16 10:58:00,56.4,56.1,29.82,NW,306,10.0,14.0,99,0.00,,,0.46,Wunderground v.1.15,2013-01-16 15:58:00,
2013-01-16 11:03:00,56.1,55.8,29.82,NW,311,6.0,8.0,99,0.00,,,0.46,Wunderground v.1.15,2013-01-16 16:03:00,
2013-01-16 11:08:00,55.9,55.6,29.82,NW,317,4.0,8.0,99,0.00,,,0.46,Wunderground v.1.15,2013-01-16 16:08:00,
2013-01-16 11:13:00,56.0,55.7,29.82,NW,317,2.0,3.0,99,0.00,,,0.46,Wunderground v.1.15,2013-01-16 16:13:00,
2013-01-16 11:18:00,56.2,55.9,29.82,NW,317,0.0,3.0,99,0.00,,,0.46,Wunderground v.1.15,2013-01-16 16:18:00,
2013-01-16 11:23:00,56.4,56.1,29.82,NW,317,0.0,3.0,99,0.00,,,0.46,Wunderground v.1.15,2013-01-16 16:23:00,
2013-01-16 11:28:00,56.7,56.4,29.81,NW,317,2.0,4.0,99,0.00,,,0.46,Wunderground v.1.15,2013-01-16 16:28:00,
2013-01-16 11:33:00,56.8,56.5,29.81,NW,317,3.0,6.0,99,0.00,,,0.46,Wunderground v.1.15,2013-01-16 16:33:00,
2013-01-16 11:38:00,57.0,56.7,29.81,NW,317,3.0,6.0,99,0.00,,,0.46,Wunderground v.1.15,2013-01-16 16:38:00,
2013-01-16 11:44:00,57.7,57.4,29.80,NW,317,2.0,4.0,99,0.00,,,0.46,Wunderground v.1.15,2013-01-16 16:44:00,
2013-01-16 11:49:00,59.1,58.8,29.80,NW,321,1.0,5.0,99,0.00,,,0.46,Wunderground v.1.15,2013-01-16 16:49:00,
2013-01-16 11:54:00,58.6,58.3,29.80,SE,142,3.0,12.0,99,0.00,,,0.46,Wunderground v.1.15,2013-01-16 16:54:00,
2013-01-16 11:59:00,58.7,58.4,29.79,SE,142,3.0,12.0,99,0.00,,,0.46,Wunderground v.1.15,2013-01-16 16:59:00,
2013-01-16 12:04:00,58.5,58.2,29.79,SSE,158,4.0,8.0,99,0.00,,,0.46,Wunderground v.1.15,2013-01-16 17:04:00,
2013-01-16 12:09:00,58.7,58.4,29.79,SE,138,4.0,12.0,99,0.00,,,0.46,Wunderground v.1.15,2013-01-16 17:09:00,
2013-01-16 12:14:00,59.1,58.8,29.79,SSE,161,3.0,4.0,99,0.00,,,0.46,Wunderground v.1.15,2013-01-16 17:14:00,
2013-01-16 12:19:00,59.0,58.7,29.79,SSE,161,2.0,4.0,99,0.00,,,0.46,Wunderground v.1.15,2013-01-16 17:19:00,
2013-01-16 12:24:00,58.7,58.1,29.79,SSE,161,0.0,2.0,98,0.00,,,0.46,Wunderground v.1.15,2013-01-16 17:24:00,
2013-01-16 12:29:00,58.5,57.7,29.79,SE,144,2.0,10.0,97,0.00,,,0.46,Wunderground v.1.15,2013-01-16 17:29:00,
2013-01-16 12:35:00,58.6,57.8,29.79,SE,144,1.0,2.0,97,0.00,,,0.46,Wunderground v.1.15,2013-01-16 17:35:00,
2013-01-16 12:40:00,59.4,58.5,29.79,SSE,157,1.0,1.0,97,0.00,,,0.46,Wunderground v.1.15,2013-01-16 17:40:00,
2013-01-16 12:45:00,60.5,59.6,29.78,SSE,156,2.0,3.0,97,0.00,,,0.46,Wunderground v.1.15,2013-01-16 17:45:00,
2013-01-16 12:51:00,61.5,59.2,29.78,SSE,156,2.0,4.0,92,0.00,,,0.46,Wunderground v.1.15,2013-01-16 17:51:00,
2013-01-16 12:56:00,61.9,59.5,29.78,SSE,156,1.0,4.0,92,0.00,,,0.46,Wunderground v.1.15,2013-01-16 17:56:00,
2013-01-16 13:01:00,61.7,58.4,29.77,SSE,156,0.0,0.0,89,0.00,,,0.46,Wunderground v.1.15,2013-01-16 18:01:00,
2013-01-16 13:06:00,61.7,59.7,29.77,SSE,156,0.0,0.0,93,0.00,,,0.46,Wunderground v.1.15,2013-01-16 18:06:00,
2013-01-16 13:11:00,61.6,59.3,29.77,SSE,156,0.0,0.0,92,0.00,,,0.46,Wunderground v.1.15,2013-01-16 18:11:00,
2013-01-16 13:17:00,61.4,58.1,29.77,SSE,156,0.0,2.0,89,0.00,,,0.46,Wunderground v.1.15,2013-01-16 18:17:00,
2013-01-16 13:22:00,61.2,57.9,29.77,SSE,156,0.0,3.0,89,0.00,,,0.46,Wunderground v.1.15,2013-01-16 18:22:00,
2013-01-16 13:27:00,60.9,57.9,29.77,SSE,156,1.0,3.0,90,0.00,,,0.46,Wunderground v.1.15,2013-01-16 18:27:00,
2013-01-16 13:32:00,60.7,58.1,29.77,SSE,156,0.0,4.0,91,0.00,,,0.46,Wunderground v.1.15,2013-01-16 18:32:00,
2013-01-16 13:37:00,60.4,57.5,29.77,SSE,151,2.0,5.0,90,0.00,,,0.46,Wunderground v.1.15,2013-01-16 18:37:00,
2013-01-16 13:42:00,60.1,57.5,29.78,SSE,152,4.0,9.0,91,0.00,,,0.46,Wunderground v.1.15,2013-01-16 18:42:00,
2013-01-16 13:47:00,60.0,57.7,29.78,SSE,152,2.0,9.0,92,0.00,,,0.46,Wunderground v.1.15,2013-01-16 18:47:00,
2013-01-16 13:52:00,60.0,58.0,29.78,SSE,152,0.0,1.0,93,0.00,,,0.46,Wunderground v.1.15,2013-01-16 18:52:00,
2013-01-16 13:57:00,60.0,58.0,29.78,SSE,152,0.0,1.0,93,0.00,,,0.46,Wunderground v.1.15,2013-01-16 18:57:00,
2013-01-16 14:02:00,59.8,57.8,29.78,SSE,152,0.0,0.0,93,0.00,,,0.46,Wunderground v.1.15,2013-01-16 19:02:00,
2013-01-16 14:08:00,59.7,58.0,29.78,SSE,152,0.0,4.0,94,0.00,,,0.46,Wunderground v.1.15,2013-01-16 19:08:00,
2013-01-16 14:13:00,59.6,57.6,29.78,SSE,152,0.0,0.0,93,0.00,,,0.46,Wunderground v.1.15,2013-01-16 19:13:00,
2013-01-16 14:18:00,59.6,57.9,29.78,SSE,155,1.0,4.0,94,0.00,,,0.46,Wunderground v.1.15,2013-01-16 19:18:00,
2013-01-16 14:23:00,59.6,57.6,29.78,SSE,155,2.0,2.0,93,0.00,,,0.46,Wunderground v.1.15,2013-01-16 19:23:00,
2013-01-16 14:28:00,59.6,57.6,29.78,SSE,155,1.0,2.0,93,0.00,,,0.46,Wunderground v.1.15,2013-01-16 19:28:00,
2013-01-16 14:33:00,59.4,54.6,29.78,SSE,156,1.0,5.0,84,0.00,,,0.46,Wunderground v.1.15,2013-01-16 19:33:00,
2013-01-16 14:38:00,59.4,54.2,29.78,SSE,156,1.0,7.0,83,0.00,,,0.47,Wunderground v.1.15,2013-01-16 19:38:00,
2013-01-16 14:44:00,59.8,54.0,29.77,SSE,156,1.0,2.0,81,0.00,,,0.47,Wunderground v.1.15,2013-01-16 19:44:00,
2013-01-16 14:50:00,60.0,52.8,29.77,SSE,150,2.0,2.0,77,0.00,,,0.47,Wunderground v.1.15,2013-01-16 19:50:00,
2013-01-16 14:55:00,60.0,52.8,29.77,ENE,76,3.0,3.0,77,0.00,,,0.47,Wunderground v.1.15,2013-01-16 19:55:00,
2013-01-16 15:00:00,59.9,52.7,29.77,ENE,76,1.0,1.0,77,0.00,,,0.47,Wunderground v.1.15,2013-01-16 20:00:00,
2013-01-16 15:05:00,59.7,51.4,29.77,NE,44,1.0,4.0,74,0.00,,,0.47,Wunderground v.1.15,2013-01-16 20:05:00,
2013-01-16 15:10:00,59.6,52.0,29.77,NE,51,1.0,1.0,76,0.00,,,0.47,Wunderground v.1.15,2013-01-16 20:10:00,
2013-01-16 15:15:00,59.4,51.8,29.77,NE,51,1.0,2.0,76,0.00,,,0.47,Wunderground v.1.15,2013-01-16 20:15:00,
2013-01-16 15:20:00,59.2,51.6,29.77,SE,138,2.0,2.0,76,0.00,,,0.47,Wunderground v.1.15,2013-01-16 20:20:00,
2013-01-16 15:25:00,59.0,52.1,29.77,SE,138,2.0,6.0,78,0.00,,,0.47,Wunderground v.1.15,2013-01-16 20:25:00,
2013-01-16 15:30:00,58.9,52.1,29.78,SW,234,1.0,1.0,78,0.00,,,0.47,Wunderground v.1.15,2013-01-16 20:30:00,
2013-01-16 15:35:00,58.7,52.5,29.78,NNW,347,1.0,4.0,80,0.00,,,0.47,Wunderground v.1.15,2013-01-16 20:35:00,
2013-01-16 15:41:00,58.4,52.6,29.78,NW,304,2.0,2.0,81,0.00,,,0.47,Wunderground v.1.15,2013-01-16 20:41:00,
2013-01-16 15:46:00,58.2,52.4,29.78,NW,304,2.0,4.0,81,0.00,,,0.47,Wunderground v.1.15,2013-01-16 20:46:00,
2013-01-16 15:51:00,58.0,52.5,29.78,NW,304,1.0,1.0,82,0.00,,,0.47,Wunderground v.1.15,2013-01-16 20:51:00,
2013-01-16 15:56:00,57.8,52.3,29.78,NW,304,0.0,1.0,82,0.00,,,0.47,Wunderground v.1.15,2013-01-16 20:56:00,
2013-01-16 16:01:00,57.7,54.2,29.79,NNW,338,3.0,18.0,88,0.00,,,0.47,Wunderground v.1.15,2013-01-16 21:01:00,
2013-01-16 16:07:00,56.6,53.7,29.79,NW,312,15.0,21.0,90,0.00,,,0.47,Wunderground v.1.15,2013-01-16 21:07:00,
2013-01-16 16:12:00,55.7,53.4,29.79,NW,322,19.0,20.0,92,0.00,,,0.47,Wunderground v.1.15,2013-01-16 21:12:00,
2013-01-16 16:17:00,55.1,53.1,29.79,NW,317,16.0,20.0,93,0.00,,,0.47,Wunderground v.1.15,2013-01-16 21:17:00,
2013-01-16 16:23:00,54.5,52.8,29.79,NW,313,16.0,24.0,94,0.00,,,0.47,Wunderground v.1.15,2013-01-16 21:23:00,
2013-01-16 16:28:00,54.1,52.4,29.79,NW,309,15.0,24.0,94,0.00,,,0.47,Wunderground v.1.15,2013-01-16 21:28:00,
2013-01-16 16:33:00,53.8,52.4,29.79,NNW,329,14.0,18.0,95,0.00,,,0.47,Wunderground v.1.15,2013-01-16 21:33:00,
2013-01-16 16:39:00,53.5,52.1,29.79,NW,306,14.0,21.0,95,0.00,,,0.47,Wunderground v.1.15,2013-01-16 21:39:00,
2013-01-16 16:44:00,53.3,52.2,29.80,WNW,297,13.0,16.0,96,0.00,,,0.47,Wunderground v.1.15,2013-01-16 21:44:00,
2013-01-16 16:49:00,53.2,52.1,29.80,WNW,300,12.0,18.0,96,0.00,,,0.47,Wunderground v.1.15,2013-01-16 21:49:00,
2013-01-16 16:54:00,53.0,51.9,29.80,NNW,337,12.0,14.0,96,0.00,,,0.47,Wunderground v.1.15,2013-01-16 21:54:00,
2013-01-16 16:59:00,52.8,51.7,29.81,WNW,299,12.0,18.0,96,0.00,,,0.47,Wunderground v.1.15,2013-01-16 21:59:00,
2013-01-16 17:05:00,52.6,51.5,29.81,WNW,302,13.0,22.0,96,0.00,,,0.47,Wunderground v.1.15,2013-01-16 22:05:00,
2013-01-16 17:11:00,52.4,51.6,29.81,NW,311,13.0,21.0,97,0.00,,,0.47,Wunderground v.1.15,2013-01-16 22:11:00,
2013-01-16 17:16:00,52.3,51.5,29.81,NNW,333,13.0,21.0,97,0.00,,,0.47,Wunderground v.1.15,2013-01-16 22:16:00,
2013-01-16 17:21:00,52.3,51.5,29.81,NW,321,12.0,16.0,97,0.00,,,0.47,Wunderground v.1.15,2013-01-16 22:21:00,
2013-01-16 17:27:00,52.2,51.4,29.81,NW,308,11.0,16.0,97,0.00,,,0.47,Wunderground v.1.15,2013-01-16 22:27:00,
2013-01-16 17:32:00,52.1,51.3,29.81,WNW,286,12.0,14.0,97,0.00,,,0.47,Wunderground v.1.15,2013-01-16 22:32:00,
2013-01-16 17:38:00,52.1,51.3,29.81,WNW,288,11.0,14.0,97,0.00,,,0.47,Wunderground v.1.15,2013-01-16 22:38:00,
2013-01-16 17:43:00,52.0,51.2,29.81,WNW,303,8.0,11.0,97,0.00,,,0.47,Wunderground v.1.15,2013-01-16 22:43:00,
2013-01-16 17:48:00,52.0,51.5,29.81,WNW,303,6.0,11.0,98,0.00,,,0.47,Wunderground v.1.15,2013-01-16 22:48:00,
2013-01-16 17:53:00,52.0,51.5,29.81,WNW,302,5.0,10.0,98,0.00,,,0.47,Wunderground v.1.15,2013-01-16 22:53:00,
2013-01-16 17:58:00,52.0,51.5,29.81,WNW,302,6.0,10.0,98,0.00,,,0.47,Wunderground v.1.15,2013-01-16 22:58:00,
2013-01-16 18:03:00,52.0,51.5,29.81,WNW,302,6.0,10.0,98,0.00,,,0.47,Wunderground v.1.15,2013-01-16 23:03:00,
2013-01-16 18:08:00,52.0,51.5,29.81,WNW,302,4.0,10.0,98,0.00,,,0.47,Wunderground v.1.15,2013-01-16 23:08:00,
2013-01-16 18:13:00,52.0,51.5,29.81,WNW,302,2.0,3.0,98,0.00,,,0.47,Wunderground v.1.15,2013-01-16 23:13:00,
2013-01-16 18:18:00,52.0,51.5,29.81,WNW,302,1.0,7.0,98,0.00,,,0.47,Wunderground v.1.15,2013-01-16 23:18:00,
2013-01-16 18:24:00,52.0,51.5,29.81,WNW,302,3.0,8.0,98,0.00,,,0.47,Wunderground v.1.15,2013-01-16 23:24:00,
2013-01-16 18:29:00,52.0,51.5,29.82,WNW,300,6.0,12.0,98,0.00,,,0.47,Wunderground v.1.15,2013-01-16 23:29:00,
2013-01-16 18:34:00,52.0,51.5,29.82,WNW,300,5.0,8.0,98,0.00,,,0.47,Wunderground v.1.15,2013-01-16 23:34:00,
2013-01-16 18:39:00,52.1,51.6,29.82,WNW,300,4.0,8.0,98,0.00,,,0.47,Wunderground v.1.15,2013-01-16 23:39:00,
2013-01-16 18:44:00,52.1,51.6,29.83,WNW,300,4.0,8.0,98,0.00,,,0.47,Wunderground v.1.15,2013-01-16 23:44:00,
2013-01-16 18:49:00,52.1,51.6,29.83,WNW,300,5.0,9.0,98,0.00,,,0.47,Wunderground v.1.15,2013-01-16 23:49:00,
2013-01-16 18:54:00,52.1,51.6,29.83,WNW,300,4.0,5.0,98,0.00,,,0.47,Wunderground v.1.15,2013-01-16 23:54:00,
2013-01-16 18:59:00,52.1,51.6,29.83,WNW,300,3.0,6.0,98,0.00,,,0.47,Wunderground v.1.15,2013-01-16 23:59:00,
2013-01-16 19:04:00,52.1,51.6,29.83,WNW,300,3.0,6.0,98,0.00,,,0.47,Wunderground v.1.15,2013-01-17 00:04:00,
2013-01-16 19:09:00,52.1,51.6,29.83,WNW,300,3.0,6.0,98,0.00,,,0.47,Wunderground v.1.15,2013-01-17 00:09:00,
2013-01-16 19:14:00,52.1,51.6,29.81,WNW,300,4.0,8.0,98,0.00,,,0.47,Wunderground v.1.15,2013-01-17 00:14:00,
2013-01-16 19:19:00,52.0,51.5,29.81,WNW,300,3.0,8.0,98,0.00,,,0.47,Wunderground v.1.15,2013-01-17 00:19:00,
2013-01-16 19:25:00,52.0,51.5,29.81,WNW,300,0.0,3.0,98,0.00,,,0.48,Wunderground v.1.15,2013-01-17 00:25:00,
2013-01-16 19:30:00,52.0,51.5,29.81,WNW,300,0.0,0.0,98,0.00,,,0.48,Wunderground v.1.15,2013-01-17 00:30:00,
2013-01-16 19:35:00,52.0,51.5,29.81,WNW,300,0.0,0.0,98,0.00,,,0.48,Wunderground v.1.15,2013-01-17 00:35:00,
2013-01-16 19:40:00,51.9,51.4,29.81,WNW,300,0.0,0.0,98,0.00,,,0.48,Wunderground v.1.15,2013-01-17 00:40:00,
2013-01-16 19:45:00,52.0,51.5,29.82,WNW,300,0.0,2.0,98,0.00,,,0.48,Wunderground v.1.15,2013-01-17 00:45:00,
2013-01-16 19:50:00,52.0,51.5,29.82,WNW,300,1.0,2.0,98,0.00,,,0.48,Wunderground v.1.15,2013-01-17 00:50:00,
2013-01-16 19:55:00,52.0,51.5,29.82,WNW,300,4.0,9.0,98,0.00,,,0.48,Wunderground v.1.15,2013-01-17 00:55:00,
2013-01-16 20:00:00,52.1,51.6,29.82,WNW,300,7.0,9.0,98,0.00,,,0.48,Wunderground v.1.15,2013-01-17 01:00:00,
2013-01-16 20:05:00,52.1,51.6,29.82,WNW,300,8.0,10.0,98,0.00,,,0.48,Wunderground v.1.15,2013-01-17 01:05:00,
2013-01-16 20:10:00,52.1,51.6,29.82,WNW,300,8.0,9.0,98,0.00,,,0.49,Wunderground v.1.15,2013-01-17 01:10:00,
2013-01-16 20:15:00,52.2,51.7,29.82,WNW,300,5.0,9.0,98,0.00,,,0.49,Wunderground v.1.15,2013-01-17 01:15:00,
2013-01-16 20:21:00,52.1,51.6,29.82,WNW,300,1.0,2.0,98,0.00,,,0.49,Wunderground v.1.15,2013-01-17 01:21:00,
2013-01-16 20:26:00,52.2,51.7,29.82,WNW,300,0.0,2.0,98,0.00,,,0.49,Wunderground v.1.15,2013-01-17 01:26:00,
2013-01-16 20:31:00,52.2,51.7,29.83,WNW,300,0.0,0.0,98,0.00,,,0.49,Wunderground v.1.15,2013-01-17 01:31:00,
2013-01-16 20:36:00,52.1,51.6,29.83,WNW,300,0.0,0.0,98,0.00,,,0.49,Wunderground v.1.15,2013-01-17 01:36:00,
2013-01-16 20:41:00,52.1,51.6,29.83,WNW,300,0.0,0.0,98,0.00,,,0.49,Wunderground v.1.15,2013-01-17 01:41:00,
2013-01-16 20:46:00,52.1,51.6,29.83,WNW,300,0.0,0.0,98,0.00,,,0.49,Wunderground v.1.15,2013-01-17 01:46:00,
2013-01-16 20:51:00,52.1,51.6,29.83,WNW,300,0.0,0.0,98,0.00,,,0.49,Wunderground v.1.15,2013-01-17 01:51:00,
2013-01-16 20:56:00,52.0,51.5,29.83,WNW,300,0.0,0.0,98,0.00,,,0.49,Wunderground v.1.15,2013-01-17 01:56:00,
2013-01-16 21:01:00,52.1,51.8,29.83,WNW,300,0.0,0.0,99,0.00,,,0.49,Wunderground v.1.15,2013-01-17 02:01:00,
2013-01-16 21:06:00,52.1,51.8,29.83,WNW,300,0.0,0.0,99,0.00,,,0.50,Wunderground v.1.15,2013-01-17 02:06:00,
2013-01-16 21:11:00,52.0,51.7,29.83,WNW,300,0.0,0.0,99,0.00,,,0.50,Wunderground v.1.15,2013-01-17 02:11:00,
2013-01-16 21:17:00,52.0,51.7,29.84,WNW,300,0.0,0.0,99,0.00,,,0.50,Wunderground v.1.15,2013-01-17 02:17:00,
2013-01-16 21:22:00,52.0,51.7,29.84,WNW,300,0.0,0.0,99,0.04,,,0.51,Wunderground v.1.15,2013-01-17 02:22:00,
2013-01-16 21:27:00,52.0,51.7,29.84,WNW,300,0.0,0.0,99,0.12,,,0.52,Wunderground v.1.15,2013-01-17 02:27:00,
2013-01-16 21:32:00,52.0,51.7,29.84,WNW,300,0.0,0.0,99,0.14,,,0.53,Wunderground v.1.15,2013-01-17 02:32:00,
2013-01-16 21:37:00,52.0,51.7,29.84,WNW,300,0.0,0.0,99,0.08,,,0.54,Wunderground v.1.15,2013-01-17 02:37:00,
2013-01-16 21:42:00,52.0,51.7,29.83,WNW,300,1.0,5.0,99,0.08,,,0.54,Wunderground v.1.15,2013-01-17 02:42:00,
2013-01-16 21:47:00,51.9,51.6,29.83,WNW,300,1.0,5.0,99,0.07,,,0.55,Wunderground v.1.15,2013-01-17 02:47:00,
2013-01-16 21:52:00,51.9,51.6,29.83,WNW,300,0.0,1.0,99,0.08,,,0.56,Wunderground v.1.15,2013-01-17 02:52:00,
2013-01-16 21:57:00,51.9,51.6,29.83,WNW,300,2.0,6.0,99,0.16,,,0.57,Wunderground v.1.15,2013-01-17 02:57:00,
2013-01-16 22:02:00,51.9,51.6,29.83,WNW,300,2.0,2.0,99,0.08,,,0.57,Wunderground v.1.15,2013-01-17 03:02:00,
2013-01-16 22:07:00,51.8,51.5,29.83,WNW,300,0.0,2.0,99,0.14,,,0.58,Wunderground v.1.15,2013-01-17 03:07:00,
2013-01-16 22:13:00,51.8,51.5,29.83,WNW,300,2.0,6.0,99,0.10,,,0.59,Wunderground v.1.15,2013-01-17 03:13:00,
2013-01-16 22:18:00,51.8,51.5,29.83,WNW,300,4.0,7.0,99,0.05,,,0.59,Wunderground v.1.15,2013-01-17 03:18:00,
2013-01-16 22:24:00,51.8,51.5,29.83,WNW,300,6.0,10.0,99,0.05,,,0.60,Wunderground v.1.15,2013-01-17 03:24:00,
2013-01-16 22:29:00,51.8,51.5,29.81,WNW,300,7.0,10.0,99,0.10,,,0.61,Wunderground v.1.15,2013-01-17 03:29:00,
2013-01-16 22:34:00,51.7,51.4,29.81,NW,308,7.0,15.0,99,0.08,,,0.62,Wunderground v.1.15,2013-01-17 03:34:00,
2013-01-16 22:39:00,51.6,51.3,29.81,WNW,290,8.0,15.0,99,0.08,,,0.62,Wunderground v.1.15,2013-01-17 03:39:00,
2013-01-16 22:44:00,51.5,51.2,29.81,WNW,286,8.0,9.0,99,0.10,,,0.63,Wunderground v.1.15,2013-01-17 03:44:00,
2013-01-16 22:49:00,51.5,51.2,29.81,WNW,286,6.0,9.0,99,0.06,,,0.63,Wunderground v.1.15,2013-01-17 03:49:00,
2013-01-16 22:55:00,51.4,51.1,29.81,WNW,286,2.0,6.0,99,0.04,,,0.63,Wunderground v.1.15,2013-01-17 03:55:00,
2013-01-16 23:00:00,51.2,50.7,29.81,WNW,286,2.0,2.0,98,0.00,,,0.63,Wunderground v.1.15,2013-01-17 04:00:00,
2013-01-16 23:05:00,51.1,50.6,29.81,WNW,286,2.0,4.0,98,0.00,,,0.63,Wunderground v.1.15,2013-01-17 04:05:00,
2013-01-16 23:10:00,51.0,50.7,29.81,WNW,286,1.0,1.0,99,0.00,,,0.63,Wunderground v.1.15,2013-01-17 04:10:00,
2013-01-16 23:15:00,50.9,50.6,29.81,WNW,286,0.0,1.0,99,0.00,,,0.64,Wunderground v.1.15,2013-01-17 04:15:00,
2013-01-16 23:21:00,50.8,50.5,29.81,WNW,286,0.0,0.0,99,0.08,,,0.65,Wunderground v.1.15,2013-01-17 04:21:00,
2013-01-16 23:26:00,50.6,50.3,29.81,WNW,286,0.0,4.0,99,0.08,,,0.65,Wunderground v.1.15,2013-01-17 04:26:00,
2013-01-16 23:31:00,50.4,49.9,29.80,WNW,286,0.0,0.0,98,0.05,,,0.65,Wunderground v.1.15,2013-01-17 04:31:00,
2013-01-16 23:36:00,50.3,49.8,29.80,WNW,286,0.0,2.0,98,0.00,,,0.65,Wunderground v.1.15,2013-01-17 04:36:00,
2013-01-16 23:41:00,50.3,49.8,29.80,WNW,286,1.0,4.0,98,0.00,,,0.65,Wunderground v.1.15,2013-01-17 04:41:00,
2013-01-16 23:46:00,50.2,49.7,29.80,WNW,286,1.0,4.0,98,0.00,,,0.65,Wunderground v.1.15,2013-01-17 04:46:00,
2013-01-16 23:51:00,50.2,49.7,29.80,WNW,286,0.0,1.0,98,0.00,,,0.65,Wunderground v.1.15,2013-01-17 04:51:00,
2013-01-16 23:56:00,50.2,49.7,29.80,WNW,286,0.0,1.0,98,0.00,,,0.65,Wunderground v.1.15,2013-01-17 04:56:00,